Time;durP1;ratioP1;P1;durP2;ratioP2;P2;SDS_P1;SDS_P2;PMS_P1;PMS_P2;Temp;Humidity;BMP_temperature;BMP_pressure;BME280_temperature;BME280_humidity;BME280_pressure;Samples;Min_cycle;Max_cycle;Signal;HPM_P1;HPM_P2
2022/03/05 00:00:08;;;;;;;31.05;14.40;;;6.90;47.90;;;;;;5035736;28;20029;-23
2022/03/05 00:02:34;;;;;;;27.98;13.75;;;6.90;46.90;;;;;;5035983;28;20035;-21
2022/03/05 00:05:00;;;;;;;28.65;13.70;;;6.90;47.20;;;;;;5034185;28;20119;-20
2022/03/05 00:07:27;;;;;;;26.50;12.98;;;6.90;47.60;;;;;;5034158;28;20096;-21
2022/03/05 00:09:53;;;;;;;30.50;13.20;;;6.90;47.60;;;;;;5035454;28;20481;-22
2022/03/05 00:12:19;;;;;;;34.13;16.80;;;6.90;47.50;;;;;;5034136;28;20022;-21
2022/03/05 00:14:44;;;;;;;27.50;14.00;;;6.90;48.50;;;;;;5034023;28;20039;-22
2022/03/05 00:17:11;;;;;;;25.95;13.35;;;6.90;47.90;;;;;;5035239;28;20531;-21
2022/03/05 00:19:37;;;;;;;30.17;13.95;;;6.90;47.80;;;;;;5035405;28;20037;-22
2022/03/05 00:22:03;;;;;;;31.42;17.17;;;6.90;47.80;;;;;;5035761;28;20099;-21
2022/03/05 00:24:29;;;;;;;34.72;15.60;;;6.90;48.10;;;;;;5035210;28;20104;-21
2022/03/05 00:26:55;;;;;;;33.35;15.75;;;6.90;48.50;;;;;;5034970;28;20116;-23
2022/03/05 00:29:21;;;;;;;27.45;14.38;;;6.80;48.50;;;;;;5035282;28;20036;-22
2022/03/05 00:31:46;;;;;;;31.90;15.63;;;6.80;48.20;;;;;;5035472;28;20025;-22
2022/03/05 00:34:12;;;;;;;31.35;14.18;;;6.80;48.40;;;;;;5034634;28;20068;-23
2022/03/05 00:36:38;;;;;;;33.10;15.32;;;6.70;48.30;;;;;;5034930;28;20041;-21
2022/03/05 00:39:05;;;;;;;34.53;16.70;;;6.70;48.70;;;;;;5035000;28;20113;-23
2022/03/05 00:41:31;;;;;;;36.35;16.38;;;6.70;48.50;;;;;;5034711;28;20025;-22
2022/03/05 00:43:57;;;;;;;33.65;15.98;;;6.70;48.40;;;;;;5035031;28;20026;-23
2022/03/05 00:46:23;;;;;;;28.70;13.38;;;6.70;48.80;;;;;;5034881;28;20025;-23
2022/03/05 00:48:49;;;;;;;34.60;15.43;;;6.60;48.30;;;;;;5033245;28;20493;-21
2022/03/05 00:51:14;;;;;;;32.38;14.93;;;6.60;49.00;;;;;;5035694;28;20029;-23
2022/03/05 00:53:40;;;;;;;35.08;14.57;;;6.60;48.70;;;;;;5035144;28;20480;-21
2022/03/05 00:56:07;;;;;;;31.30;14.77;;;6.60;49.40;;;;;;5034649;28;20124;-23
2022/03/05 00:58:33;;;;;;;29.85;13.82;;;6.50;49.10;;;;;;5034238;28;20025;-21
2022/03/05 01:00:58;;;;;;;26.13;12.43;;;6.50;48.60;;;;;;5034585;28;20032;-21
2022/03/05 01:03:24;;;;;;;38.60;16.75;;;6.50;48.40;;;;;;5034306;28;20389;-21
2022/03/05 01:05:51;;;;;;;30.15;14.27;;;6.40;49.30;;;;;;5034586;28;20026;-21
2022/03/05 01:08:17;;;;;;;34.88;16.35;;;6.40;49.10;;;;;;5032973;28;20029;-22
2022/03/05 01:10:43;;;;;;;31.63;14.77;;;6.30;49.30;;;;;;5034426;28;20021;-22
2022/03/05 01:13:09;;;;;;;34.13;16.00;;;6.30;48.90;;;;;;5034469;28;20469;-21
2022/03/05 01:15:35;;;;;;;31.08;15.23;;;6.30;49.40;;;;;;5034095;28;20032;-21
2022/03/05 01:18:00;;;;;;;33.45;16.13;;;6.20;49.30;;;;;;5032656;28;20053;-23
2022/03/05 01:20:26;;;;;;;37.08;15.65;;;6.10;49.20;;;;;;5034182;28;20038;-22
2022/03/05 01:22:52;;;;;;;31.23;15.27;;;6.00;49.30;;;;;;5034249;28;20033;-22
2022/03/05 01:25:18;;;;;;;33.55;15.80;;;6.00;49.30;;;;;;5034159;28;20021;-21
2022/03/05 01:27:44;;;;;;;28.00;14.75;;;6.00;48.90;;;;;;5034395;28;20052;-21
2022/03/05 01:30:11;;;;;;;29.48;13.25;;;5.90;49.10;;;;;;5032578;28;20493;-23
2022/03/05 01:32:37;;;;;;;31.73;14.52;;;5.90;49.00;;;;;;5034073;28;20026;-20
2022/03/05 01:35:03;;;;;;;24.45;11.38;;;5.80;48.50;;;;;;5034636;28;20531;-22
2022/03/05 01:37:29;;;;;;;27.83;13.88;;;5.80;48.80;;;;;;5033990;28;20018;-22
2022/03/05 01:39:54;;;;;;;21.02;9.80;;;5.70;48.70;;;;;;5033818;28;20390;-22
2022/03/05 01:42:21;;;;;;;24.83;11.63;;;5.60;48.40;;;;;;5033409;28;20489;-22
2022/03/05 01:44:47;;;;;;;30.77;13.02;;;5.60;48.40;;;;;;5033623;28;20025;-23
2022/03/05 01:47:13;;;;;;;34.20;15.25;;;5.60;49.10;;;;;;5033927;28;20029;-23
2022/03/05 01:49:39;;;;;;;19.08;9.50;;;5.50;49.30;;;;;;5033619;28;20014;-22
2022/03/05 01:52:06;;;;;;;17.98;9.18;;;5.50;48.90;;;;;;5033753;28;20036;-21
2022/03/05 01:54:32;;;;;;;17.08;7.60;;;5.40;48.80;;;;;;5033281;28;20029;-21
2022/03/05 01:56:59;;;;;;;22.75;10.57;;;5.40;48.30;;;;;;5033301;28;20041;-21
2022/03/05 01:59:25;;;;;;;16.00;7.95;;;5.30;48.40;;;;;;5034161;28;20040;-21
2022/03/05 02:01:51;;;;;;;15.15;7.22;;;5.30;48.30;;;;;;5033537;28;20108;-22
2022/03/05 02:04:17;;;;;;;14.15;7.45;;;5.20;48.50;;;;;;5033184;28;20433;-22
2022/03/05 02:06:43;;;;;;;17.77;8.75;;;5.20;48.40;;;;;;5033285;28;20477;-24
2022/03/05 02:09:10;;;;;;;24.20;11.10;;;5.10;48.60;;;;;;5033567;28;20022;-23
2022/03/05 02:11:36;;;;;;;22.08;10.02;;;5.00;48.50;;;;;;5034159;28;20433;-20
2022/03/05 02:14:03;;;;;;;17.85;8.02;;;4.90;48.70;;;;;;5033786;28;20105;-21
2022/03/05 02:16:29;;;;;;;23.92;11.30;;;4.90;48.80;;;;;;5033550;28;20030;-22
2022/03/05 02:18:56;;;;;;;21.52;9.88;;;4.90;48.80;;;;;;5032536;28;20045;-22
2022/03/05 02:21:27;;;;;;;24.52;12.73;;;4.70;48.70;;;;;;5032759;28;20037;-21
2022/03/05 02:23:54;;;;;;;17.70;8.57;;;4.70;48.80;;;;;;5032996;28;20029;-21
2022/03/05 02:26:22;;;;;;;20.60;8.90;;;4.60;48.70;;;;;;5032727;28;20037;-21
2022/03/05 02:28:49;;;;;;;23.52;11.30;;;4.50;48.50;;;;;;5033319;28;20029;-22
2022/03/05 02:31:15;;;;;;;16.83;7.70;;;4.50;49.50;;;;;;5033369;28;20018;-22
2022/03/05 02:33:43;;;;;;;19.80;8.80;;;4.40;49.20;;;;;;5033001;28;20083;-22
2022/03/05 02:36:09;;;;;;;18.70;8.70;;;4.30;49.20;;;;;;5033231;28;20029;-22
2022/03/05 02:38:35;;;;;;;20.98;10.75;;;4.20;49.50;;;;;;5033088;28;20531;-22
2022/03/05 02:41:01;;;;;;;22.05;9.27;;;4.10;49.60;;;;;;5031733;28;20030;-22
2022/03/05 02:43:28;;;;;;;18.05;8.55;;;4.10;49.80;;;;;;5032846;28;20032;-21
2022/03/05 02:45:55;;;;;;;17.08;8.13;;;4.00;49.70;;;;;;5033245;28;20029;-22
2022/03/05 02:48:21;;;;;;;22.23;10.50;;;4.00;49.60;;;;;;5032635;28;20408;-21
2022/03/05 02:50:48;;;;;;;15.57;7.63;;;3.90;49.60;;;;;;5033138;28;20105;-21
2022/03/05 02:53:15;;;;;;;14.88;7.13;;;3.90;49.10;;;;;;5033119;28;20103;-21
2022/03/05 02:55:42;;;;;;;20.67;8.80;;;3.90;49.00;;;;;;5032700;28;20030;-21
2022/03/05 02:58:08;;;;;;;19.17;8.50;;;3.80;48.90;;;;;;5032851;28;20060;-21
2022/03/05 03:00:34;;;;;;;16.52;7.47;;;3.80;49.00;;;;;;5032740;28;20050;-21
2022/03/05 03:02:59;;;;;;;13.77;6.75;;;3.70;49.00;;;;;;5031490;28;20426;-21
2022/03/05 03:05:25;;;;;;;17.23;8.90;;;3.70;49.00;;;;;;5032728;28;20030;-22
2022/03/05 03:07:52;;;;;;;14.18;6.68;;;3.60;48.80;;;;;;5032692;28;20021;-21
2022/03/05 03:10:18;;;;;;;19.85;8.95;;;3.60;48.90;;;;;;5032662;28;20018;-25
2022/03/05 03:12:44;;;;;;;14.35;5.97;;;3.60;49.00;;;;;;5033100;28;20164;-22
2022/03/05 03:15:13;;;;;;;14.65;6.78;;;3.50;48.80;;;;;;5032831;28;20076;-21
2022/03/05 03:17:47;;;;;;;14.80;7.30;;;3.50;48.70;;;;;;5032664;28;20053;-22
2022/03/05 03:20:18;;;;;;;12.88;6.40;;;3.40;48.80;;;;;;5032375;28;20037;-21
2022/03/05 03:22:45;;;;;;;14.43;6.25;;;3.40;48.60;;;;;;5032664;28;20075;-20
2022/03/05 03:25:11;;;;;;;18.77;8.38;;;3.40;48.60;;;;;;5032491;28;20025;-21
2022/03/05 03:27:37;;;;;;;20.30;8.90;;;3.30;48.60;;;;;;5032781;28;20029;-21
2022/03/05 03:30:05;;;;;;;16.88;8.35;;;3.30;48.70;;;;;;5032777;28;20022;-21
2022/03/05 03:32:32;;;;;;;19.20;8.75;;;3.30;48.60;;;;;;5034879;28;20018;-21
2022/03/05 03:34:58;;;;;;;17.20;7.20;;;3.30;48.70;;;;;;5036013;28;20022;-22
2022/03/05 03:37:28;;;;;;;14.75;7.18;;;3.20;48.70;;;;;;5035983;28;20482;-21
2022/03/05 03:39:59;;;;;;;21.83;9.77;;;3.20;49.00;;;;;;5035774;28;20029;-23
2022/03/05 03:42:26;;;;;;;13.90;6.50;;;3.10;49.30;;;;;;5035712;28;20030;-23
2022/03/05 03:44:53;;;;;;;15.57;7.65;;;3.10;49.20;;;;;;5036264;28;20029;-22
2022/03/05 03:47:20;;;;;;;21.05;10.15;;;3.00;49.10;;;;;;5035701;28;20033;-22
2022/03/05 03:49:47;;;;;;;16.38;7.10;;;3.00;49.20;;;;;;5036039;28;20024;-21
2022/03/05 03:52:13;;;;;;;15.45;6.82;;;3.00;49.00;;;;;;5036109;28;20029;-23
2022/03/05 03:54:44;;;;;;;11.45;5.70;;;2.90;48.90;;;;;;5035685;28;20030;-22
2022/03/05 03:57:10;;;;;;;17.38;8.40;;;2.90;48.80;;;;;;5035958;28;20045;-23
2022/03/05 03:59:36;;;;;;;16.10;7.50;;;2.90;49.20;;;;;;5035834;28;20056;-22
2022/03/05 04:02:03;;;;;;;19.88;8.80;;;2.80;49.10;;;;;;5035577;28;20092;-22
2022/03/05 04:04:30;;;;;;;18.48;7.85;;;2.80;49.40;;;;;;5035334;28;20078;-22
2022/03/05 04:09:40;;;;;;;;;;;2.70;49.20;;;;;;5036447;28;20024;-21
2022/03/05 04:12:07;;;;;;;18.33;8.85;;;2.60;50.20;;;;;;5035616;28;19912;-21
2022/03/05 04:14:33;;;;;;;14.68;6.88;;;2.60;49.60;;;;;;5035448;28;20063;-23
2022/03/05 04:17:00;;;;;;;13.38;6.10;;;2.60;49.40;;;;;;5034988;28;20378;-21
2022/03/05 04:19:26;;;;;;;21.05;9.38;;;2.50;49.10;;;;;;5035493;28;20037;-23
2022/03/05 04:21:52;;;;;;;14.38;6.65;;;2.50;49.40;;;;;;5035259;28;20112;-23
2022/03/05 04:24:18;;;;;;;11.77;4.40;;;2.40;49.20;;;;;;5035010;28;20156;-23
2022/03/05 04:26:44;;;;;;;15.60;7.13;;;2.40;49.20;;;;;;5035297;28;20018;-23
2022/03/05 04:29:10;;;;;;;9.45;3.83;;;2.40;49.10;;;;;;5035378;28;20544;-24
2022/03/05 04:31:36;;;;;;;15.10;7.15;;;2.40;49.20;;;;;;5034990;28;20030;-23
2022/03/05 04:34:02;;;;;;;14.80;7.18;;;2.30;49.30;;;;;;5035223;28;20028;-22
2022/03/05 04:36:27;;;;;;;18.83;8.55;;;2.30;49.30;;;;;;5034953;28;20033;-21
2022/03/05 04:38:53;;;;;;;9.50;4.30;;;2.20;49.30;;;;;;5035029;28;20017;-22
2022/03/05 04:41:19;;;;;;;9.88;4.68;;;2.20;49.40;;;;;;5034999;28;20393;-21
2022/03/05 04:43:47;;;;;;;13.45;6.22;;;2.10;49.30;;;;;;5034644;28;20493;-23
2022/03/05 04:46:15;;;;;;;24.95;11.73;;;2.10;49.30;;;;;;5034595;28;20025;-21
2022/03/05 04:48:41;;;;;;;17.55;8.35;;;2.00;49.40;;;;;;5034889;28;20036;-22
2022/03/05 04:51:07;;;;;;;20.88;9.88;;;1.90;50.20;;;;;;5034881;28;20447;-22
2022/03/05 04:53:33;;;;;;;16.10;7.80;;;1.90;49.70;;;;;;5034855;28;20097;-24
2022/03/05 04:55:59;;;;;;;13.10;5.85;;;1.90;49.80;;;;;;5034570;28;20112;-22
2022/03/05 04:58:25;;;;;;;22.17;10.18;;;1.80;49.90;;;;;;5034545;28;20036;-23
2022/03/05 05:00:51;;;;;;;24.50;10.70;;;1.70;50.30;;;;;;5034357;28;20444;-22
2022/03/05 05:03:17;;;;;;;14.65;6.97;;;1.70;50.50;;;;;;5033125;28;20029;-22
2022/03/05 05:05:43;;;;;;;15.30;6.95;;;1.60;50.10;;;;;;5034784;28;20022;-24
2022/03/05 05:08:09;;;;;;;25.33;12.02;;;1.60;50.40;;;;;;5034564;28;20034;-23
2022/03/05 05:10:35;;;;;;;22.02;10.20;;;1.60;50.60;;;;;;5034184;28;20045;-23
2022/03/05 05:13:01;;;;;;;25.20;11.20;;;1.50;51.30;;;;;;5034171;28;20152;-22
2022/03/05 05:15:27;;;;;;;21.45;9.77;;;1.40;50.90;;;;;;5034995;28;20029;-24
2022/03/05 05:17:53;;;;;;;14.63;6.95;;;1.40;50.80;;;;;;5033928;28;20048;-22
2022/03/05 05:20:19;;;;;;;14.45;6.32;;;1.40;50.90;;;;;;5034049;28;20551;-22
2022/03/05 05:22:45;;;;;;;16.05;7.05;;;1.30;51.00;;;;;;5032764;28;20124;-23
2022/03/05 05:25:11;;;;;;;23.83;11.40;;;1.30;51.10;;;;;;5034205;28;20029;-22
2022/03/05 05:27:38;;;;;;;16.00;7.55;;;1.20;51.10;;;;;;5034188;28;20438;-22
2022/03/05 05:30:06;;;;;;;16.38;7.55;;;1.20;51.20;;;;;;5034095;28;20378;-23
2022/03/05 05:32:33;;;;;;;24.13;11.48;;;1.20;50.90;;;;;;5033969;28;20033;-22
2022/03/05 05:35:00;;;;;;;20.30;9.20;;;1.10;51.60;;;;;;5034020;28;20100;-21
2022/03/05 05:37:25;;;;;;;25.23;12.00;;;1.10;51.90;;;;;;5033837;28;20022;-23
2022/03/05 05:39:51;;;;;;;19.02;8.07;;;1.00;52.20;;;;;;5033761;28;20032;-21
2022/03/05 05:42:17;;;;;;;26.02;11.75;;;1.00;51.90;;;;;;5033400;28;20022;-21
2022/03/05 05:44:43;;;;;;;19.55;7.70;;;0.90;51.50;;;;;;5034451;28;20056;-23
2022/03/05 05:47:09;;;;;;;15.82;6.78;;;0.90;52.00;;;;;;5033547;28;20040;-22
2022/03/05 05:49:36;;;;;;;10.52;4.80;;;0.90;51.80;;;;;;5034676;28;20048;-22
2022/03/05 05:52:03;;;;;;;20.92;8.82;;;0.80;51.70;;;;;;5033729;28;20501;-22
2022/03/05 05:54:29;;;;;;;21.98;8.98;;;0.90;51.50;;;;;;5032736;28;20497;-22
2022/03/05 05:56:55;;;;;;;24.92;11.57;;;0.80;51.80;;;;;;5033625;28;20052;-21
2022/03/05 05:59:21;;;;;;;29.45;12.77;;;0.80;52.60;;;;;;5033309;28;20112;-23
2022/03/05 06:01:47;;;;;;;28.83;12.77;;;0.80;54.20;;;;;;5033887;28;20033;-23
2022/03/05 06:04:13;;;;;;;15.32;7.03;;;0.80;53.70;;;;;;5033334;28;20025;-23
2022/03/05 06:06:39;;;;;;;10.77;4.47;;;0.70;53.30;;;;;;5033458;28;20025;-23
2022/03/05 06:09:05;;;;;;;19.13;8.25;;;0.80;52.10;;;;;;5033272;28;20030;-21
2022/03/05 06:11:31;;;;;;;19.48;7.68;;;0.70;51.80;;;;;;5033296;28;20033;-24
2022/03/05 06:13:57;;;;;;;12.48;6.10;;;0.80;51.90;;;;;;5032105;28;20057;-23
2022/03/05 06:16:24;;;;;;;15.90;7.47;;;0.80;51.70;;;;;;5033000;28;20111;-22
2022/03/05 06:18:50;;;;;;;20.33;8.70;;;0.80;52.00;;;;;;5033018;28;20048;-21
2022/03/05 06:21:16;;;;;;;18.02;8.20;;;0.80;52.20;;;;;;5033219;28;20456;-21
2022/03/05 06:23:42;;;;;;;25.02;11.70;;;0.80;52.20;;;;;;5033410;28;20022;-21
2022/03/05 06:26:08;;;;;;;20.00;8.88;;;0.80;51.80;;;;;;5032975;28;20030;-21
2022/03/05 06:28:35;;;;;;;22.90;9.35;;;0.90;52.50;;;;;;5032879;28;20572;-22
2022/03/05 06:31:02;;;;;;;23.70;9.88;;;0.90;52.40;;;;;;5033314;28;20017;-21
2022/03/05 06:33:29;;;;;;;34.75;15.88;;;1.00;52.20;;;;;;5032963;28;20432;-21
2022/03/05 06:35:55;;;;;;;31.55;14.35;;;1.10;53.50;;;;;;5033052;28;20032;-22
2022/03/05 06:38:21;;;;;;;32.45;15.00;;;1.10;55.60;;;;;;5032840;28;20029;-21
2022/03/05 06:40:48;;;;;;;27.65;12.75;;;1.20;55.20;;;;;;5033061;28;20032;-21
2022/03/05 06:43:15;;;;;;;34.92;15.55;;;1.30;55.20;;;;;;5033812;28;20450;-23
2022/03/05 06:45:41;;;;;;;37.42;14.45;;;1.30;54.70;;;;;;5033182;28;20092;-21
2022/03/05 06:48:07;;;;;;;28.25;13.40;;;1.40;54.90;;;;;;5032805;28;20086;-22
2022/03/05 06:50:34;;;;;;;58.75;26.35;;;1.60;54.70;;;;;;5033493;28;20105;-21
2022/03/05 06:53:00;;;;;;;78.43;38.22;;;1.60;55.20;;;;;;5033253;28;20022;-21
2022/03/05 06:55:26;;;;;;;76.93;35.80;;;1.70;54.90;;;;;;5032700;28;20462;-22
2022/03/05 06:57:52;;;;;;;40.20;18.85;;;1.80;54.50;;;;;;5034025;28;20129;-21
2022/03/05 07:00:18;;;;;;;41.67;19.35;;;1.90;54.10;;;;;;5032738;28;20060;-22
2022/03/05 07:02:45;;;;;;;34.15;14.80;;;2.00;53.60;;;;;;5033104;28;20018;-23
2022/03/05 07:05:11;;;;;;;27.83;12.60;;;2.10;53.20;;;;;;5033356;28;20466;-23
2022/03/05 07:07:37;;;;;;;24.95;11.52;;;2.10;52.80;;;;;;5036834;28;20045;-23
2022/03/05 07:10:05;;;;;;;16.85;7.35;;;2.30;52.30;;;;;;5036812;28;20021;-21
2022/03/05 07:12:32;;;;;;;19.13;8.18;;;2.40;52.20;;;;;;5036241;28;20428;-23
2022/03/05 07:14:59;;;;;;;27.67;13.65;;;2.50;52.70;;;;;;5035243;28;20048;-23
2022/03/05 07:17:25;;;;;;;30.60;13.98;;;2.60;52.20;;;;;;5036187;28;20049;-22
2022/03/05 07:19:54;;;;;;;33.22;15.68;;;2.60;52.40;;;;;;5036566;28;20037;-21
2022/03/05 07:22:20;;;;;;;26.83;13.00;;;2.80;52.50;;;;;;5036330;28;20051;-23
2022/03/05 07:24:46;;;;;;;25.25;11.75;;;2.90;52.50;;;;;;5036547;28;20021;-21
2022/03/05 07:27:12;;;;;;;18.83;8.80;;;2.90;52.70;;;;;;5036404;28;20129;-21
2022/03/05 07:29:38;;;;;;;18.88;9.55;;;3.00;52.70;;;;;;5036465;28;20080;-21
2022/03/05 07:32:04;;;;;;;23.65;10.18;;;3.10;51.70;;;;;;5035244;28;20028;-21
2022/03/05 07:34:31;;;;;;;20.10;9.85;;;3.20;52.90;;;;;;5036209;28;20029;-21
2022/03/05 07:36:57;;;;;;;21.05;8.68;;;3.30;52.00;;;;;;5036673;28;20057;-23
2022/03/05 07:39:24;;;;;;;20.60;9.35;;;3.50;51.00;;;;;;5036208;28;20049;-22
2022/03/05 07:41:50;;;;;;;21.42;9.77;;;3.60;51.30;;;;;;5036161;28;20030;-21
2022/03/05 07:44:16;;;;;;;23.02;10.52;;;3.80;51.00;;;;;;5035682;28;20036;-23
2022/03/05 07:46:42;;;;;;;20.58;9.57;;;3.90;51.40;;;;;;5035843;28;20033;-21
2022/03/05 07:49:08;;;;;;;28.75;13.00;;;4.00;50.30;;;;;;5035987;28;20025;-21
2022/03/05 07:51:35;;;;;;;25.20;10.93;;;4.10;51.50;;;;;;5035853;28;20036;-23
2022/03/05 07:54:01;;;;;;;32.72;14.75;;;4.30;50.30;;;;;;5036022;28;20061;-21
2022/03/05 07:56:27;;;;;;;23.30;11.05;;;4.40;51.50;;;;;;5035710;28;20430;-22
2022/03/05 07:58:53;;;;;;;23.55;10.93;;;4.60;50.50;;;;;;5035573;28;20037;-23
2022/03/05 08:01:19;;;;;;;23.92;10.88;;;4.80;50.10;;;;;;5035824;28;20041;-23
2022/03/05 08:03:45;;;;;;;28.95;12.93;;;5.10;50.10;;;;;;5035783;28;20428;-22
2022/03/05 08:06:11;;;;;;;34.15;15.43;;;5.30;50.00;;;;;;5035613;28;20507;-22
2022/03/05 08:08:37;;;;;;;21.45;10.88;;;5.50;49.80;;;;;;5035759;28;20033;-22
2022/03/05 08:11:03;;;;;;;28.35;12.45;;;5.80;48.90;;;;;;5035309;28;20025;-23
2022/03/05 08:13:30;;;;;;;34.25;15.23;;;6.10;49.20;;;;;;5035630;28;20100;-21
2022/03/05 08:15:56;;;;;;;26.38;12.85;;;6.40;48.50;;;;;;5035766;28;20033;-22
2022/03/05 08:18:23;;;;;;;23.85;11.25;;;6.70;48.10;;;;;;5034869;28;20057;-21
2022/03/05 08:20:49;;;;;;;24.58;12.13;;;7.00;47.20;;;;;;5035448;28;20029;-22
2022/03/05 08:23:15;;;;;;;24.63;11.13;;;7.30;46.50;;;;;;5035123;28;20397;-22
2022/03/05 08:25:41;;;;;;;25.08;12.23;;;7.60;46.10;;;;;;5033822;28;20025;-22
2022/03/05 08:28:08;;;;;;;26.92;13.32;;;8.00;45.20;;;;;;5035571;28;20026;-21
2022/03/05 08:30:34;;;;;;;28.75;13.57;;;8.30;44.60;;;;;;5034842;28;20385;-23
2022/03/05 08:33:00;;;;;;;24.23;11.65;;;8.60;44.50;;;;;;5034956;28;20024;-22
2022/03/05 08:35:26;;;;;;;24.25;11.73;;;8.80;44.20;;;;;;5034866;28;20028;-22
2022/03/05 08:37:53;;;;;;;22.23;10.93;;;9.10;42.60;;;;;;5035132;28;20029;-22
2022/03/05 08:40:20;;;;;;;24.85;11.98;;;9.30;42.40;;;;;;5034806;28;20056;-23
2022/03/05 08:42:48;;;;;;;21.77;10.43;;;9.50;41.10;;;;;;5035046;28;20032;-22
2022/03/05 08:45:15;;;;;;;25.55;12.38;;;9.70;40.70;;;;;;5034726;28;20025;-21
2022/03/05 08:47:41;;;;;;;19.83;10.68;;;9.90;39.00;;;;;;5034899;28;20120;-22
2022/03/05 08:50:08;;;;;;;22.27;10.98;;;10.00;39.30;;;;;;5034699;28;20021;-22
2022/03/05 08:52:37;;;;;;;22.15;11.35;;;10.10;39.60;;;;;;5034337;28;20025;-23
2022/03/05 08:55:06;;;;;;;21.92;10.38;;;10.30;38.80;;;;;;5034560;28;20029;-23
2022/03/05 08:57:32;;;;;;;23.65;10.80;;;10.40;39.70;;;;;;5034353;28;20504;-22
2022/03/05 08:59:58;;;;;;;21.40;10.65;;;10.50;39.00;;;;;;5034648;28;20030;-22
2022/03/05 09:02:24;;;;;;;21.88;10.50;;;10.70;38.90;;;;;;5034503;28;20032;-22
2022/03/05 09:04:50;;;;;;;23.17;11.43;;;10.90;38.50;;;;;;5034696;28;20029;-21
2022/03/05 09:07:16;;;;;;;22.58;11.57;;;11.00;37.90;;;;;;5034386;28;20064;-22
2022/03/05 09:09:41;;;;;;;21.52;11.70;;;11.10;38.00;;;;;;5034430;28;20025;-23
2022/03/05 09:12:08;;;;;;;17.65;9.63;;;11.30;38.50;;;;;;5034156;28;20493;-22
2022/03/05 09:14:34;;;;;;;24.13;11.75;;;11.40;38.10;;;;;;5034269;28;20116;-23
2022/03/05 09:17:00;;;;;;;20.23;10.60;;;11.60;38.40;;;;;;5034162;28;20065;-22
2022/03/05 09:19:26;;;;;;;23.88;12.38;;;11.80;37.80;;;;;;5034374;28;20531;-23
2022/03/05 09:21:52;;;;;;;22.15;10.75;;;11.90;36.50;;;;;;5032824;28;20029;-22
2022/03/05 09:24:19;;;;;;;19.35;11.30;;;12.00;36.90;;;;;;5034070;28;20030;-22
2022/03/05 09:26:45;;;;;;;22.40;11.50;;;12.10;36.70;;;;;;5033840;28;20108;-21
2022/03/05 09:29:10;;;;;;;21.60;9.93;;;12.30;36.20;;;;;;5033267;28;20108;-21
2022/03/05 09:31:39;;;;;;;22.02;10.63;;;12.40;36.60;;;;;;5033870;28;20182;-21
2022/03/05 09:34:05;;;;;;;21.48;10.15;;;12.50;36.50;;;;;;5034106;28;20119;-21
2022/03/05 09:36:31;;;;;;;21.30;10.30;;;12.70;36.30;;;;;;5033710;28;20053;-21
2022/03/05 09:38:57;;;;;;;19.25;9.93;;;12.90;36.10;;;;;;5034048;28;20029;-21
2022/03/05 09:41:23;;;;;;;20.27;10.88;;;13.00;35.90;;;;;;5033862;28;20461;-21
2022/03/05 09:43:50;;;;;;;19.38;10.35;;;13.10;34.20;;;;;;5033669;28;20029;-21
2022/03/05 09:46:20;;;;;;;17.80;8.75;;;13.20;34.50;;;;;;5033547;28;20032;-21
2022/03/05 09:48:48;;;;;;;16.63;9.52;;;13.30;35.10;;;;;;5033495;28;20026;-23
2022/03/05 09:51:14;;;;;;;14.32;8.32;;;13.40;34.00;;;;;;5033804;28;20109;-22
2022/03/05 09:53:40;;;;;;;15.90;8.68;;;13.50;34.40;;;;;;5033733;28;20096;-21
2022/03/05 09:56:06;;;;;;;18.30;9.80;;;13.70;34.40;;;;;;5033315;28;20495;-21
2022/03/05 09:58:31;;;;;;;19.35;9.68;;;13.80;33.80;;;;;;5033566;28;20108;-21
2022/03/05 10:00:57;;;;;;;17.27;9.02;;;13.90;34.00;;;;;;5033582;28;20041;-21
2022/03/05 10:03:27;;;;;;;18.23;9.68;;;14.00;34.10;;;;;;5033709;28;20104;-21
2022/03/05 10:06:13;;;;;;;16.77;9.35;;;14.20;34.10;;;;;;5033554;28;20040;-22
2022/03/05 10:08:38;;;;;;;19.77;10.32;;;14.40;34.00;;;;;;5033624;28;20022;-21
2022/03/05 10:11:07;;;;;;;16.33;7.85;;;14.50;34.00;;;;;;5033822;28;20025;-21
2022/03/05 10:13:33;;;;;;;14.32;7.75;;;14.70;34.20;;;;;;5033549;28;20074;-23
2022/03/05 10:16:22;;;;;;;17.55;9.65;;;14.90;33.70;;;;;;5033189;28;20030;-22
2022/03/05 10:18:49;;;;;;;17.48;8.65;;;15.10;32.30;;;;;;5032926;28;20064;-22
2022/03/05 10:21:16;;;;;;;15.48;8.43;;;15.20;32.00;;;;;;5033596;28;20116;-21
2022/03/05 10:23:47;;;;;;;17.90;8.80;;;15.30;32.70;;;;;;5033437;28;20037;-20
2022/03/05 10:26:15;;;;;;;14.75;8.35;;;15.40;32.10;;;;;;5032869;28;20029;-20
2022/03/05 10:28:42;;;;;;;15.25;8.80;;;15.50;32.10;;;;;;5033375;28;20029;-21
2022/03/05 10:31:10;;;;;;;14.10;8.02;;;15.60;31.70;;;;;;5033063;28;20034;-21
2022/03/05 10:33:41;;;;;;;16.15;9.25;;;15.70;32.30;;;;;;5033197;28;20028;-21
2022/03/05 10:36:10;;;;;;;16.35;9.70;;;15.90;31.40;;;;;;5033007;28;20523;-21
2022/03/05 10:38:51;;;;;;;16.45;9.63;;;15.90;31.70;;;;;;5033163;28;20038;-21
2022/03/05 10:41:30;;;;;;;20.13;11.15;;;16.00;31.00;;;;;;5035308;28;20493;-21
2022/03/05 10:44:15;;;;;;;15.50;8.73;;;16.10;31.20;;;;;;5037271;28;20033;-21
2022/03/05 10:46:47;;;;;;;16.20;8.23;;;16.20;31.00;;;;;;5037243;28;20025;-23
2022/03/05 10:49:18;;;;;;;14.25;8.95;;;16.40;31.00;;;;;;5037186;28;20025;-22
2022/03/05 10:51:48;;;;;;;15.07;9.10;;;16.40;30.30;;;;;;5036863;28;20021;-21
2022/03/05 10:54:37;;;;;;;16.10;9.70;;;16.50;30.10;;;;;;5037493;28;20057;-22
2022/03/05 10:57:23;;;;;;;21.30;12.82;;;16.50;28.70;;;;;;5036928;28;20045;-21
2022/03/05 10:59:52;;;;;;;17.42;10.35;;;16.60;28.60;;;;;;5036993;28;20049;-22
2022/03/05 11:02:23;;;;;;;16.13;9.63;;;16.70;30.40;;;;;;5036483;28;20116;-22
2022/03/05 11:04:51;;;;;;;15.27;8.52;;;16.90;30.20;;;;;;5037125;28;20104;-22
2022/03/05 11:07:19;;;;;;;14.68;8.45;;;17.00;30.30;;;;;;5036579;28;20493;-22
2022/03/05 11:09:49;;;;;;;16.02;9.48;;;17.10;30.30;;;;;;5036527;28;20025;-21
2022/03/05 11:12:18;;;;;;;18.13;10.48;;;17.30;30.10;;;;;;5036491;28;20111;-21
2022/03/05 11:14:46;;;;;;;14.63;8.23;;;17.40;29.60;;;;;;5036765;28;20104;-21
2022/03/05 11:17:12;;;;;;;14.40;8.55;;;17.60;30.20;;;;;;5036126;28;20477;-22
2022/03/05 11:19:39;;;;;;;16.13;9.23;;;17.90;30.10;;;;;;5036655;28;20044;-21
2022/03/05 11:22:06;;;;;;;13.35;8.27;;;18.00;29.70;;;;;;5036597;28;20052;-21
2022/03/05 11:24:33;;;;;;;16.05;8.68;;;18.20;29.40;;;;;;5036389;28;20083;-21
2022/03/05 11:26:59;;;;;;;14.60;8.63;;;18.40;29.40;;;;;;5036137;28;20026;-22
2022/03/05 11:29:28;;;;;;;14.82;8.55;;;18.60;29.20;;;;;;5036206;28;20385;-22
2022/03/05 11:32:21;;;;;;;14.05;8.50;;;18.80;29.10;;;;;;5036288;28;20037;-22
2022/03/05 11:34:49;;;;;;;14.10;9.32;;;18.90;27.20;;;;;;5036408;28;20168;-23
2022/03/05 11:37:26;;;;;;;15.00;8.75;;;19.00;29.00;;;;;;5036036;28;20037;-22
2022/03/05 11:39:53;;;;;;;15.77;9.75;;;19.10;27.60;;;;;;5036222;28;20028;-21
2022/03/05 11:42:38;;;;;;;15.93;9.85;;;19.20;28.30;;;;;;5035629;28;20033;-22
2022/03/05 11:45:26;;;;;;;14.00;8.73;;;19.20;27.00;;;;;;5036191;28;20171;-22
2022/03/05 11:47:55;;;;;;;12.82;8.68;;;19.20;26.80;;;;;;5036208;28;20041;-22
2022/03/05 11:50:23;;;;;;;13.57;9.55;;;19.30;27.40;;;;;;5035920;28;20030;-22
2022/03/05 11:52:49;;;;;;;13.05;8.40;;;19.30;27.60;;;;;;5034742;28;20362;-22
2022/03/05 11:55:19;;;;;;;18.75;11.43;;;19.30;27.40;;;;;;5035986;28;20038;-21
2022/03/05 11:57:51;;;;;;;13.38;8.85;;;19.20;26.10;;;;;;5036006;28;20483;-22
2022/03/05 12:00:29;;;;;;;12.13;8.23;;;19.30;26.70;;;;;;5035477;28;20112;-21
2022/03/05 12:02:58;;;;;;;14.52;8.68;;;19.30;25.80;;;;;;5036020;28;20029;-21
2022/03/05 12:05:33;;;;;;;14.65;9.60;;;19.40;26.90;;;;;;5035866;28;20024;-21
2022/03/05 12:08:00;;;;;;;14.25;8.95;;;19.40;25.80;;;;;;5035785;28;20038;-21
2022/03/05 12:10:26;;;;;;;13.57;9.30;;;19.40;27.00;;;;;;5035650;28;20161;-22
2022/03/05 12:12:58;;;;;;;12.75;8.27;;;19.40;27.10;;;;;;5035277;28;20086;-22
2022/03/05 12:15:48;;;;;;;13.68;9.20;;;19.50;27.30;;;;;;5035359;28;20029;-21
2022/03/05 12:18:16;;;;;;;12.15;8.23;;;19.60;26.20;;;;;;5034760;28;20394;-21
2022/03/05 12:20:46;;;;;;;9.50;6.47;;;19.80;27.40;;;;;;5035431;28;20023;-22
2022/03/05 12:23:21;;;;;;;13.85;9.32;;;20.10;27.60;;;;;;5035533;28;20025;-22
2022/03/05 12:25:49;;;;;;;11.93;7.45;;;20.30;26.90;;;;;;5035144;28;20477;-22
2022/03/05 12:28:23;;;;;;;13.20;8.43;;;20.50;27.00;;;;;;5034907;28;20549;-21
2022/03/05 12:30:58;;;;;;;12.40;7.55;;;20.70;26.60;;;;;;5035404;28;20030;-22
2022/03/05 12:33:24;;;;;;;10.77;6.60;;;21.00;25.90;;;;;;5035354;28;20025;-21
2022/03/05 12:35:50;;;;;;;13.43;8.85;;;21.20;26.60;;;;;;5035815;28;20029;-21
2022/03/05 12:38:19;;;;;;;9.98;6.78;;;21.50;26.10;;;;;;5034753;28;20025;-21
2022/03/05 12:40:45;;;;;;;14.82;9.20;;;21.70;26.20;;;;;;5035184;28;20025;-21
2022/03/05 12:43:11;;;;;;;12.40;7.80;;;21.90;25.40;;;;;;5034728;28;20022;-21